sensor_id;sensor_type;location;lat;lon;timestamp;temperature;humidity
41437;DHT22;27178;49.460;10.850;2022-10-26T00:01:16;14.70;79.80
41437;DHT22;27178;49.460;10.850;2022-10-26T00:03:45;14.70;79.90
41437;DHT22;27178;49.460;10.850;2022-10-26T00:06:15;14.70;80.00
41437;DHT22;27178;49.460;10.850;2022-10-26T00:08:47;14.60;80.00
41437;DHT22;27178;49.460;10.850;2022-10-26T00:11:16;14.60;80.00
41437;DHT22;27178;49.460;10.850;2022-10-26T00:13:45;14.60;80.20
41437;DHT22;27178;49.460;10.850;2022-10-26T00:16:15;14.60;80.20
41437;DHT22;27178;49.460;10.850;2022-10-26T00:18:44;14.60;80.40
41437;DHT22;27178;49.460;10.850;2022-10-26T00:21:12;14.60;80.40
41437;DHT22;27178;49.460;10.850;2022-10-26T00:23:43;14.60;80.40
41437;DHT22;27178;49.460;10.850;2022-10-26T00:26:13;14.60;80.60
41437;DHT22;27178;49.460;10.850;2022-10-26T00:28:41;14.60;80.70
41437;DHT22;27178;49.460;10.850;2022-10-26T00:31:12;14.60;80.80
41437;DHT22;27178;49.460;10.850;2022-10-26T00:33:41;14.60;81.00
41437;DHT22;27178;49.460;10.850;2022-10-26T00:36:10;14.60;81.00
41437;DHT22;27178;49.460;10.850;2022-10-26T00:38:40;14.60;81.00
41437;DHT22;27178;49.460;10.850;2022-10-26T00:41:14;14.60;81.00
41437;DHT22;27178;49.460;10.850;2022-10-26T00:43:43;14.60;81.10
41437;DHT22;27178;49.460;10.850;2022-10-26T00:46:15;14.60;81.00
41437;DHT22;27178;49.460;10.850;2022-10-26T00:48:47;14.60;80.80
41437;DHT22;27178;49.460;10.850;2022-10-26T00:51:22;14.60;80.60
41437;DHT22;27178;49.460;10.850;2022-10-26T00:53:51;14.50;80.40
41437;DHT22;27178;49.460;10.850;2022-10-26T00:56:22;14.50;80.20
41437;DHT22;27178;49.460;10.850;2022-10-26T00:58:51;14.50;80.20
41437;DHT22;27178;49.460;10.850;2022-10-26T01:01:19;14.50;80.00
41437;DHT22;27178;49.460;10.850;2022-10-26T01:03:48;14.50;80.00
41437;DHT22;27178;49.460;10.850;2022-10-26T01:06:17;14.40;80.20
41437;DHT22;27178;49.460;10.850;2022-10-26T01:08:47;14.40;80.30
41437;DHT22;27178;49.460;10.850;2022-10-26T01:11:15;14.40;80.40
41437;DHT22;27178;49.460;10.850;2022-10-26T01:13:46;14.40;80.50
41437;DHT22;27178;49.460;10.850;2022-10-26T01:16:36;14.40;80.70
41437;DHT22;27178;49.460;10.850;2022-10-26T01:22:08;14.40;81.10
41437;DHT22;27178;49.460;10.850;2022-10-26T01:24:58;14.30;80.70
41437;DHT22;27178;49.460;10.850;2022-10-26T01:27:32;14.30;80.80
41437;DHT22;27178;49.460;10.850;2022-10-26T01:30:23;14.30;80.70
41437;DHT22;27178;49.460;10.850;2022-10-26T01:33:19;14.30;81.00
41437;DHT22;27178;49.460;10.850;2022-10-26T01:39:36;14.30;80.80
41437;DHT22;27178;49.460;10.850;2022-10-26T01:42:07;14.30;80.60
41437;DHT22;27178;49.460;10.850;2022-10-26T01:44:39;14.30;80.70
41437;DHT22;27178;49.460;10.850;2022-10-26T01:47:12;14.20;80.80
41437;DHT22;27178;49.460;10.850;2022-10-26T01:49:51;14.20;81.10
41437;DHT22;27178;49.460;10.850;2022-10-26T01:52:21;14.20;81.30
41437;DHT22;27178;49.460;10.850;2022-10-26T01:54:50;14.20;81.10
41437;DHT22;27178;49.460;10.850;2022-10-26T01:57:20;14.20;81.20
41437;DHT22;27178;49.460;10.850;2022-10-26T02:00:05;14.20;81.40
41437;DHT22;27178;49.460;10.850;2022-10-26T02:05:47;14.20;81.80
41437;DHT22;27178;49.460;10.850;2022-10-26T02:11:22;14.20;82.10
41437;DHT22;27178;49.460;10.850;2022-10-26T02:13:56;14.30;82.30
41437;DHT22;27178;49.460;10.850;2022-10-26T02:16:35;14.30;82.30
41437;DHT22;27178;49.460;10.850;2022-10-26T02:19:08;14.30;82.30
41437;DHT22;27178;49.460;10.850;2022-10-26T02:21:43;14.30;82.30
41437;DHT22;27178;49.460;10.850;2022-10-26T02:24:13;14.30;82.60
41437;DHT22;27178;49.460;10.850;2022-10-26T02:26:45;14.40;82.70
41437;DHT22;27178;49.460;10.850;2022-10-26T02:29:16;14.40;82.60
41437;DHT22;27178;49.460;10.850;2022-10-26T02:31:47;14.40;82.60
41437;DHT22;27178;49.460;10.850;2022-10-26T02:34:20;14.40;82.40
41437;DHT22;27178;49.460;10.850;2022-10-26T02:36:52;14.40;82.30
41437;DHT22;27178;49.460;10.850;2022-10-26T02:39:22;14.50;82.30
41437;DHT22;27178;49.460;10.850;2022-10-26T02:41:51;14.50;82.30
41437;DHT22;27178;49.460;10.850;2022-10-26T02:44:22;14.50;82.20
41437;DHT22;27178;49.460;10.850;2022-10-26T02:46:52;14.50;82.10
41437;DHT22;27178;49.460;10.850;2022-10-26T02:49:23;14.40;82.00
41437;DHT22;27178;49.460;10.850;2022-10-26T02:51:57;14.40;82.10
41437;DHT22;27178;49.460;10.850;2022-10-26T02:54:34;14.50;82.30
41437;DHT22;27178;49.460;10.850;2022-10-26T02:57:07;14.50;82.10
41437;DHT22;27178;49.460;10.850;2022-10-26T02:59:40;14.50;82.20
41437;DHT22;27178;49.460;10.850;2022-10-26T03:02:10;14.50;82.20
41437;DHT22;27178;49.460;10.850;2022-10-26T03:04:40;14.50;82.20
41437;DHT22;27178;49.460;10.850;2022-10-26T03:07:09;14.40;82.10
41437;DHT22;27178;49.460;10.850;2022-10-26T03:09:38;14.50;82.30
41437;DHT22;27178;49.460;10.850;2022-10-26T03:12:06;14.40;82.30
41437;DHT22;27178;49.460;10.850;2022-10-26T03:14:35;14.40;82.50
41437;DHT22;27178;49.460;10.850;2022-10-26T03:17:03;14.40;82.60
41437;DHT22;27178;49.460;10.850;2022-10-26T03:19:31;14.40;82.60
41437;DHT22;27178;49.460;10.850;2022-10-26T03:22:00;14.40;82.60
41437;DHT22;27178;49.460;10.850;2022-10-26T03:24:29;14.40;82.60
41437;DHT22;27178;49.460;10.850;2022-10-26T03:26:58;14.40;82.80
41437;DHT22;27178;49.460;10.850;2022-10-26T03:29:28;14.40;83.00
41437;DHT22;27178;49.460;10.850;2022-10-26T03:31:56;14.40;83.00
41437;DHT22;27178;49.460;10.850;2022-10-26T03:34:25;14.40;83.00
41437;DHT22;27178;49.460;10.850;2022-10-26T03:36:53;14.50;83.30
41437;DHT22;27178;49.460;10.850;2022-10-26T03:39:21;14.50;83.30
41437;DHT22;27178;49.460;10.850;2022-10-26T03:41:51;14.50;83.40
41437;DHT22;27178;49.460;10.850;2022-10-26T03:44:21;14.40;83.60
41437;DHT22;27178;49.460;10.850;2022-10-26T03:46:49;14.50;83.60
41437;DHT22;27178;49.460;10.850;2022-10-26T03:49:18;14.50;83.50
41437;DHT22;27178;49.460;10.850;2022-10-26T03:51:46;14.50;83.60
41437;DHT22;27178;49.460;10.850;2022-10-26T03:54:14;14.50;83.50
41437;DHT22;27178;49.460;10.850;2022-10-26T03:56:43;14.50;83.50
41437;DHT22;27178;49.460;10.850;2022-10-26T03:59:13;14.50;83.40
41437;DHT22;27178;49.460;10.850;2022-10-26T04:01:41;14.50;83.40
41437;DHT22;27178;49.460;10.850;2022-10-26T04:04:09;14.50;83.30
41437;DHT22;27178;49.460;10.850;2022-10-26T04:06:38;14.50;83.20
41437;DHT22;27178;49.460;10.850;2022-10-26T04:09:07;14.50;83.30
41437;DHT22;27178;49.460;10.850;2022-10-26T04:11:35;14.50;83.40
41437;DHT22;27178;49.460;10.850;2022-10-26T04:14:03;14.50;83.30
41437;DHT22;27178;49.460;10.850;2022-10-26T04:16:33;14.50;83.20
41437;DHT22;27178;49.460;10.850;2022-10-26T04:19:02;14.50;83.30
41437;DHT22;27178;49.460;10.850;2022-10-26T04:21:30;14.50;83.30
41437;DHT22;27178;49.460;10.850;2022-10-26T04:24:01;14.50;83.40
41437;DHT22;27178;49.460;10.850;2022-10-26T04:26:29;14.50;83.60
41437;DHT22;27178;49.460;10.850;2022-10-26T04:28:57;14.50;83.50
41437;DHT22;27178;49.460;10.850;2022-10-26T04:31:26;14.50;83.60
41437;DHT22;27178;49.460;10.850;2022-10-26T04:33:56;14.50;83.70
41437;DHT22;27178;49.460;10.850;2022-10-26T04:36:24;14.50;83.80
41437;DHT22;27178;49.460;10.850;2022-10-26T04:38:53;14.50;83.90
41437;DHT22;27178;49.460;10.850;2022-10-26T04:41:21;14.50;83.90
41437;DHT22;27178;49.460;10.850;2022-10-26T04:43:49;14.50;83.90
41437;DHT22;27178;49.460;10.850;2022-10-26T04:46:18;14.60;84.10
41437;DHT22;27178;49.460;10.850;2022-10-26T04:48:46;14.50;84.10
41437;DHT22;27178;49.460;10.850;2022-10-26T04:51:16;14.60;84.30
41437;DHT22;27178;49.460;10.850;2022-10-26T04:53:44;14.60;84.50
41437;DHT22;27178;49.460;10.850;2022-10-26T04:56:13;14.60;84.70
41437;DHT22;27178;49.460;10.850;2022-10-26T04:58:41;14.60;84.80
41437;DHT22;27178;49.460;10.850;2022-10-26T05:01:10;14.60;85.00
41437;DHT22;27178;49.460;10.850;2022-10-26T05:03:38;14.60;85.10
41437;DHT22;27178;49.460;10.850;2022-10-26T05:06:07;14.60;85.30
41437;DHT22;27178;49.460;10.850;2022-10-26T05:08:37;14.70;85.40
41437;DHT22;27178;49.460;10.850;2022-10-26T05:11:05;14.70;85.40
41437;DHT22;27178;49.460;10.850;2022-10-26T05:13:34;14.70;85.30
41437;DHT22;27178;49.460;10.850;2022-10-26T05:16:02;14.70;85.40
41437;DHT22;27178;49.460;10.850;2022-10-26T05:18:31;14.70;85.40
41437;DHT22;27178;49.460;10.850;2022-10-26T05:20:59;14.70;85.40
41437;DHT22;27178;49.460;10.850;2022-10-26T05:23:28;14.80;85.50
41437;DHT22;27178;49.460;10.850;2022-10-26T05:25:57;14.80;85.50
41437;DHT22;27178;49.460;10.850;2022-10-26T05:28:26;14.80;85.30
41437;DHT22;27178;49.460;10.850;2022-10-26T05:30:54;14.80;85.40
41437;DHT22;27178;49.460;10.850;2022-10-26T05:33:25;14.80;85.40
41437;DHT22;27178;49.460;10.850;2022-10-26T05:35:54;14.80;85.40
41437;DHT22;27178;49.460;10.850;2022-10-26T05:38:22;14.80;85.60
41437;DHT22;27178;49.460;10.850;2022-10-26T05:40:52;14.80;85.60
41437;DHT22;27178;49.460;10.850;2022-10-26T05:43:22;14.90;85.50
41437;DHT22;27178;49.460;10.850;2022-10-26T05:45:51;14.90;85.40
41437;DHT22;27178;49.460;10.850;2022-10-26T05:48:19;14.90;85.30
41437;DHT22;27178;49.460;10.850;2022-10-26T05:50:48;14.90;85.30
41437;DHT22;27178;49.460;10.850;2022-10-26T05:53:16;14.90;85.30
41437;DHT22;27178;49.460;10.850;2022-10-26T05:55:45;14.90;85.40
41437;DHT22;27178;49.460;10.850;2022-10-26T05:58:15;14.90;85.50
41437;DHT22;27178;49.460;10.850;2022-10-26T06:00:52;14.90;85.50
41437;DHT22;27178;49.460;10.850;2022-10-26T06:03:33;14.90;85.70
41437;DHT22;27178;49.460;10.850;2022-10-26T06:06:06;14.90;85.90
41437;DHT22;27178;49.460;10.850;2022-10-26T06:08:39;14.90;85.70
41437;DHT22;27178;49.460;10.850;2022-10-26T06:11:09;14.90;85.90
41437;DHT22;27178;49.460;10.850;2022-10-26T06:13:38;14.90;86.00
41437;DHT22;27178;49.460;10.850;2022-10-26T06:16:25;15.00;86.20
41437;DHT22;27178;49.460;10.850;2022-10-26T06:19:05;15.00;86.30
41437;DHT22;27178;49.460;10.850;2022-10-26T06:21:48;15.00;86.20
41437;DHT22;27178;49.460;10.850;2022-10-26T06:24:23;15.00;86.40
41437;DHT22;27178;49.460;10.850;2022-10-26T06:26:59;15.00;86.20
41437;DHT22;27178;49.460;10.850;2022-10-26T06:29:39;15.10;86.10
41437;DHT22;27178;49.460;10.850;2022-10-26T06:32:10;15.10;86.20
41437;DHT22;27178;49.460;10.850;2022-10-26T06:34:43;15.10;85.90
41437;DHT22;27178;49.460;10.850;2022-10-26T06:37:13;15.10;85.90
41437;DHT22;27178;49.460;10.850;2022-10-26T06:39:45;15.10;85.60
41437;DHT22;27178;49.460;10.850;2022-10-26T06:42:18;15.10;85.50
41437;DHT22;27178;49.460;10.850;2022-10-26T06:44:48;15.10;85.50
41437;DHT22;27178;49.460;10.850;2022-10-26T06:47:21;15.10;85.50
41437;DHT22;27178;49.460;10.850;2022-10-26T06:50:00;15.10;85.60
41437;DHT22;27178;49.460;10.850;2022-10-26T06:52:34;15.10;85.50
41437;DHT22;27178;49.460;10.850;2022-10-26T06:55:04;15.10;85.70
41437;DHT22;27178;49.460;10.850;2022-10-26T06:57:34;15.10;85.70
41437;DHT22;27178;49.460;10.850;2022-10-26T07:00:05;15.10;85.90
41437;DHT22;27178;49.460;10.850;2022-10-26T07:02:36;15.10;86.10
41437;DHT22;27178;49.460;10.850;2022-10-26T07:05:05;15.10;86.10
41437;DHT22;27178;49.460;10.850;2022-10-26T07:07:38;15.10;86.20
41437;DHT22;27178;49.460;10.850;2022-10-26T07:10:08;15.10;86.40
41437;DHT22;27178;49.460;10.850;2022-10-26T07:12:36;15.10;86.60
41437;DHT22;27178;49.460;10.850;2022-10-26T07:15:06;15.10;86.60
41437;DHT22;27178;49.460;10.850;2022-10-26T07:17:43;15.10;86.60
41437;DHT22;27178;49.460;10.850;2022-10-26T07:20:13;15.20;87.10
41437;DHT22;27178;49.460;10.850;2022-10-26T07:22:42;15.20;87.00
41437;DHT22;27178;49.460;10.850;2022-10-26T07:25:10;15.20;86.80
41437;DHT22;27178;49.460;10.850;2022-10-26T07:27:39;15.30;87.10
41437;DHT22;27178;49.460;10.850;2022-10-26T07:30:09;15.30;87.20
41437;DHT22;27178;49.460;10.850;2022-10-26T07:32:37;15.30;87.10
41437;DHT22;27178;49.460;10.850;2022-10-26T07:35:07;15.40;87.10
41437;DHT22;27178;49.460;10.850;2022-10-26T07:37:35;15.40;86.90
41437;DHT22;27178;49.460;10.850;2022-10-26T07:40:06;15.40;86.80
41437;DHT22;27178;49.460;10.850;2022-10-26T07:42:35;15.40;86.70
41437;DHT22;27178;49.460;10.850;2022-10-26T07:45:04;15.50;86.80
41437;DHT22;27178;49.460;10.850;2022-10-26T07:47:32;15.50;86.80
41437;DHT22;27178;49.460;10.850;2022-10-26T07:50:01;15.50;86.80
41437;DHT22;27178;49.460;10.850;2022-10-26T07:52:33;15.60;86.80
41437;DHT22;27178;49.460;10.850;2022-10-26T07:55:03;15.50;86.80
41437;DHT22;27178;49.460;10.850;2022-10-26T07:57:33;15.60;86.90
41437;DHT22;27178;49.460;10.850;2022-10-26T08:00:04;15.60;87.00
41437;DHT22;27178;49.460;10.850;2022-10-26T08:02:32;15.70;87.40
41437;DHT22;27178;49.460;10.850;2022-10-26T08:05:01;15.70;87.50
41437;DHT22;27178;49.460;10.850;2022-10-26T08:07:32;15.70;87.40
41437;DHT22;27178;49.460;10.850;2022-10-26T08:10:00;15.80;87.50
41437;DHT22;27178;49.460;10.850;2022-10-26T08:12:30;15.80;87.30
41437;DHT22;27178;49.460;10.850;2022-10-26T08:14:59;15.80;87.40
41437;DHT22;27178;49.460;10.850;2022-10-26T08:17:28;15.80;87.50
41437;DHT22;27178;49.460;10.850;2022-10-26T08:19:56;15.90;87.70
41437;DHT22;27178;49.460;10.850;2022-10-26T08:22:25;15.90;87.70
41437;DHT22;27178;49.460;10.850;2022-10-26T08:24:56;15.90;87.70
41437;DHT22;27178;49.460;10.850;2022-10-26T08:27:25;15.90;87.50
41437;DHT22;27178;49.460;10.850;2022-10-26T08:29:53;15.90;87.50
41437;DHT22;27178;49.460;10.850;2022-10-26T08:32:22;16.00;87.70
41437;DHT22;27178;49.460;10.850;2022-10-26T08:34:50;16.00;87.50
41437;DHT22;27178;49.460;10.850;2022-10-26T08:37:18;16.00;87.70
41437;DHT22;27178;49.460;10.850;2022-10-26T08:39:47;16.10;87.50
41437;DHT22;27178;49.460;10.850;2022-10-26T08:42:26;16.10;87.40
41437;DHT22;27178;49.460;10.850;2022-10-26T08:44:59;16.20;87.60
41437;DHT22;27178;49.460;10.850;2022-10-26T08:47:33;16.20;87.50
41437;DHT22;27178;49.460;10.850;2022-10-26T08:50:08;16.20;86.90
41437;DHT22;27178;49.460;10.850;2022-10-26T08:52:42;16.30;87.00
41437;DHT22;27178;49.460;10.850;2022-10-26T08:55:14;16.40;86.90
41437;DHT22;27178;49.460;10.850;2022-10-26T08:57:46;16.40;86.70
41437;DHT22;27178;49.460;10.850;2022-10-26T09:00:19;16.40;86.60
41437;DHT22;27178;49.460;10.850;2022-10-26T09:02:49;16.40;86.40
41437;DHT22;27178;49.460;10.850;2022-10-26T09:05:24;16.50;86.40
41437;DHT22;27178;49.460;10.850;2022-10-26T09:08:03;16.50;86.50
41437;DHT22;27178;49.460;10.850;2022-10-26T09:10:38;16.60;87.00
41437;DHT22;27178;49.460;10.850;2022-10-26T09:13:18;16.60;85.90
41437;DHT22;27178;49.460;10.850;2022-10-26T09:15:58;16.70;85.80
41437;DHT22;27178;49.460;10.850;2022-10-26T09:18:42;16.70;85.70
41437;DHT22;27178;49.460;10.850;2022-10-26T09:21:22;16.70;85.50
41437;DHT22;27178;49.460;10.850;2022-10-26T09:24:02;16.80;85.50
41437;DHT22;27178;49.460;10.850;2022-10-26T09:26:36;16.80;85.70
41437;DHT22;27178;49.460;10.850;2022-10-26T09:29:11;16.80;86.30
41437;DHT22;27178;49.460;10.850;2022-10-26T09:31:42;16.90;85.10
41437;DHT22;27178;49.460;10.850;2022-10-26T09:34:20;16.90;85.20
41437;DHT22;27178;49.460;10.850;2022-10-26T09:36:53;16.90;85.00
41437;DHT22;27178;49.460;10.850;2022-10-26T09:39:32;16.90;85.00
41437;DHT22;27178;49.460;10.850;2022-10-26T09:42:11;16.90;85.10
41437;DHT22;27178;49.460;10.850;2022-10-26T09:44:48;17.00;85.30
41437;DHT22;27178;49.460;10.850;2022-10-26T09:47:27;17.00;85.00
41437;DHT22;27178;49.460;10.850;2022-10-26T09:50:01;17.10;84.90
41437;DHT22;27178;49.460;10.850;2022-10-26T09:52:32;17.10;85.00
41437;DHT22;27178;49.460;10.850;2022-10-26T09:55:00;17.10;85.00
41437;DHT22;27178;49.460;10.850;2022-10-26T09:57:29;17.20;85.30
41437;DHT22;27178;49.460;10.850;2022-10-26T09:59:59;17.20;85.40
41437;DHT22;27178;49.460;10.850;2022-10-26T10:02:36;17.20;85.20
41437;DHT22;27178;49.460;10.850;2022-10-26T10:05:23;17.30;85.20
41437;DHT22;27178;49.460;10.850;2022-10-26T10:08:17;17.30;85.30
41437;DHT22;27178;49.460;10.850;2022-10-26T10:10:58;17.40;85.00
41437;DHT22;27178;49.460;10.850;2022-10-26T10:13:28;17.50;85.00
41437;DHT22;27178;49.460;10.850;2022-10-26T10:16:05;17.50;85.00
41437;DHT22;27178;49.460;10.850;2022-10-26T10:18:34;17.50;84.70
41437;DHT22;27178;49.460;10.850;2022-10-26T10:21:05;17.50;84.70
41437;DHT22;27178;49.460;10.850;2022-10-26T10:23:35;17.60;84.50
41437;DHT22;27178;49.460;10.850;2022-10-26T10:26:07;17.60;84.30
41437;DHT22;27178;49.460;10.850;2022-10-26T10:28:37;17.70;84.20
41437;DHT22;27178;49.460;10.850;2022-10-26T10:31:19;17.70;84.40
41437;DHT22;27178;49.460;10.850;2022-10-26T10:33:48;17.70;84.10
41437;DHT22;27178;49.460;10.850;2022-10-26T10:36:19;17.70;84.40
41437;DHT22;27178;49.460;10.850;2022-10-26T10:38:50;17.80;84.40
41437;DHT22;27178;49.460;10.850;2022-10-26T10:41:24;17.80;84.10
41437;DHT22;27178;49.460;10.850;2022-10-26T10:44:02;17.80;83.90
41437;DHT22;27178;49.460;10.850;2022-10-26T10:46:35;17.90;84.10
41437;DHT22;27178;49.460;10.850;2022-10-26T10:49:08;17.90;83.90
41437;DHT22;27178;49.460;10.850;2022-10-26T10:51:43;18.00;84.30
41437;DHT22;27178;49.460;10.850;2022-10-26T10:54:21;18.00;84.30
41437;DHT22;27178;49.460;10.850;2022-10-26T10:56:52;18.10;84.30
41437;DHT22;27178;49.460;10.850;2022-10-26T10:59:37;18.10;84.50
41437;DHT22;27178;49.460;10.850;2022-10-26T11:02:51;18.20;84.20
41437;DHT22;27178;49.460;10.850;2022-10-26T11:05:37;18.20;83.90
41437;DHT22;27178;49.460;10.850;2022-10-26T11:08:08;18.30;83.60
41437;DHT22;27178;49.460;10.850;2022-10-26T11:10:41;18.30;83.90
41437;DHT22;27178;49.460;10.850;2022-10-26T11:13:18;18.30;83.60
41437;DHT22;27178;49.460;10.850;2022-10-26T11:15:49;18.30;83.40
41437;DHT22;27178;49.460;10.850;2022-10-26T11:18:23;18.30;83.20
41437;DHT22;27178;49.460;10.850;2022-10-26T11:20:55;18.30;83.70
41437;DHT22;27178;49.460;10.850;2022-10-26T11:23:33;18.40;83.60
41437;DHT22;27178;49.460;10.850;2022-10-26T11:26:08;18.40;83.30
41437;DHT22;27178;49.460;10.850;2022-10-26T11:28:46;18.40;83.30
41437;DHT22;27178;49.460;10.850;2022-10-26T11:31:19;18.40;83.20
41437;DHT22;27178;49.460;10.850;2022-10-26T11:34:00;18.40;83.40
41437;DHT22;27178;49.460;10.850;2022-10-26T11:36:33;18.50;83.10
41437;DHT22;27178;49.460;10.850;2022-10-26T11:39:10;18.50;83.00
41437;DHT22;27178;49.460;10.850;2022-10-26T11:41:46;18.60;83.10
41437;DHT22;27178;49.460;10.850;2022-10-26T11:44:20;18.60;83.40
41437;DHT22;27178;49.460;10.850;2022-10-26T11:46:52;18.60;83.20
41437;DHT22;27178;49.460;10.850;2022-10-26T11:49:28;18.70;83.20
41437;DHT22;27178;49.460;10.850;2022-10-26T11:52:05;18.70;83.00
41437;DHT22;27178;49.460;10.850;2022-10-26T11:54:39;18.70;83.00
41437;DHT22;27178;49.460;10.850;2022-10-26T11:57:09;18.80;83.10
41437;DHT22;27178;49.460;10.850;2022-10-26T11:59:43;18.80;83.50
41437;DHT22;27178;49.460;10.850;2022-10-26T12:02:14;18.80;83.60
41437;DHT22;27178;49.460;10.850;2022-10-26T12:04:47;18.90;83.50
41437;DHT22;27178;49.460;10.850;2022-10-26T12:07:23;18.90;83.30
41437;DHT22;27178;49.460;10.850;2022-10-26T12:09:53;18.90;82.90
41437;DHT22;27178;49.460;10.850;2022-10-26T12:12:28;18.90;82.90
41437;DHT22;27178;49.460;10.850;2022-10-26T12:15:14;19.00;83.10
41437;DHT22;27178;49.460;10.850;2022-10-26T12:17:48;19.00;83.20
41437;DHT22;27178;49.460;10.850;2022-10-26T12:20:47;19.00;83.20
41437;DHT22;27178;49.460;10.850;2022-10-26T12:23:19;19.00;83.80
41437;DHT22;27178;49.460;10.850;2022-10-26T12:29:38;19.10;83.20
41437;DHT22;27178;49.460;10.850;2022-10-26T12:35:41;19.10;83.20
41437;DHT22;27178;49.460;10.850;2022-10-26T12:41:21;19.20;83.20
41437;DHT22;27178;49.460;10.850;2022-10-26T12:43:57;19.30;83.30
41437;DHT22;27178;49.460;10.850;2022-10-26T12:46:41;19.30;83.30
41437;DHT22;27178;49.460;10.850;2022-10-26T12:52:39;19.70;83.70
41437;DHT22;27178;49.460;10.850;2022-10-26T12:55:46;19.90;84.00
41437;DHT22;27178;49.460;10.850;2022-10-26T12:58:33;20.30;83.50
41437;DHT22;27178;49.460;10.850;2022-10-26T13:04:21;20.70;81.90
41437;DHT22;27178;49.460;10.850;2022-10-26T13:07:10;20.80;80.80
41437;DHT22;27178;49.460;10.850;2022-10-26T13:09:56;20.80;80.00
41437;DHT22;27178;49.460;10.850;2022-10-26T13:12:28;20.90;80.50
41437;DHT22;27178;49.460;10.850;2022-10-26T13:15:03;20.90;79.80
41437;DHT22;27178;49.460;10.850;2022-10-26T13:17:33;20.90;79.60
41437;DHT22;27178;49.460;10.850;2022-10-26T13:20:04;20.90;79.60
41437;DHT22;27178;49.460;10.850;2022-10-26T13:22:44;20.90;79.20
41437;DHT22;27178;49.460;10.850;2022-10-26T13:25:22;20.90;78.80
41437;DHT22;27178;49.460;10.850;2022-10-26T13:28:03;20.90;79.20
41437;DHT22;27178;49.460;10.850;2022-10-26T13:30:45;21.00;79.40
41437;DHT22;27178;49.460;10.850;2022-10-26T13:33:28;21.10;79.90
41437;DHT22;27178;49.460;10.850;2022-10-26T13:36:01;21.20;79.70
41437;DHT22;27178;49.460;10.850;2022-10-26T13:38:35;21.30;80.60
41437;DHT22;27178;49.460;10.850;2022-10-26T13:41:12;21.60;80.40
41437;DHT22;27178;49.460;10.850;2022-10-26T13:43:43;21.80;79.60
41437;DHT22;27178;49.460;10.850;2022-10-26T13:46:22;22.10;79.60
41437;DHT22;27178;49.460;10.850;2022-10-26T13:48:56;22.40;78.60
41437;DHT22;27178;49.460;10.850;2022-10-26T13:51:35;22.70;78.20
41437;DHT22;27178;49.460;10.850;2022-10-26T13:54:14;23.00;76.80
41437;DHT22;27178;49.460;10.850;2022-10-26T13:56:56;23.30;75.80
41437;DHT22;27178;49.460;10.850;2022-10-26T13:59:28;23.60;75.30
41437;DHT22;27178;49.460;10.850;2022-10-26T14:02:14;23.80;75.30
41437;DHT22;27178;49.460;10.850;2022-10-26T14:04:46;24.00;74.00
41437;DHT22;27178;49.460;10.850;2022-10-26T14:07:17;24.30;74.20
41437;DHT22;27178;49.460;10.850;2022-10-26T14:09:54;24.50;74.00
41437;DHT22;27178;49.460;10.850;2022-10-26T14:12:25;24.70;73.30
41437;DHT22;27178;49.460;10.850;2022-10-26T14:15:00;24.90;72.30
41437;DHT22;27178;49.460;10.850;2022-10-26T14:17:30;25.10;71.20
41437;DHT22;27178;49.460;10.850;2022-10-26T14:19:58;25.20;71.10
41437;DHT22;27178;49.460;10.850;2022-10-26T14:22:27;25.30;70.20
41437;DHT22;27178;49.460;10.850;2022-10-26T14:24:58;25.40;69.50
41437;DHT22;27178;49.460;10.850;2022-10-26T14:27:31;25.30;68.80
41437;DHT22;27178;49.460;10.850;2022-10-26T14:30:00;25.20;68.10
41437;DHT22;27178;49.460;10.850;2022-10-26T14:32:48;25.10;68.40
41437;DHT22;27178;49.460;10.850;2022-10-26T14:35:18;25.00;68.40
41437;DHT22;27178;49.460;10.850;2022-10-26T14:37:51;24.90;67.90
41437;DHT22;27178;49.460;10.850;2022-10-26T14:40:23;24.80;67.70
41437;DHT22;27178;49.460;10.850;2022-10-26T14:42:55;24.70;67.80
41437;DHT22;27178;49.460;10.850;2022-10-26T14:45:28;24.60;68.00
41437;DHT22;27178;49.460;10.850;2022-10-26T14:48:27;24.50;67.90
41437;DHT22;27178;49.460;10.850;2022-10-26T14:51:01;24.40;67.90
41437;DHT22;27178;49.460;10.850;2022-10-26T14:53:36;24.20;67.90
41437;DHT22;27178;49.460;10.850;2022-10-26T14:56:22;24.10;68.10
41437;DHT22;27178;49.460;10.850;2022-10-26T14:58:54;23.90;67.30
41437;DHT22;27178;49.460;10.850;2022-10-26T15:01:31;23.70;68.20
41437;DHT22;27178;49.460;10.850;2022-10-26T15:04:04;23.60;68.20
41437;DHT22;27178;49.460;10.850;2022-10-26T15:06:41;23.50;68.80
41437;DHT22;27178;49.460;10.850;2022-10-26T15:09:29;23.30;68.60
41437;DHT22;27178;49.460;10.850;2022-10-26T15:11:57;23.10;68.80
41437;DHT22;27178;49.460;10.850;2022-10-26T15:14:28;23.00;69.30
41437;DHT22;27178;49.460;10.850;2022-10-26T15:16:57;22.90;69.50
41437;DHT22;27178;49.460;10.850;2022-10-26T15:19:26;22.70;69.70
41437;DHT22;27178;49.460;10.850;2022-10-26T15:21:56;22.60;70.00
41437;DHT22;27178;49.460;10.850;2022-10-26T15:24:33;22.50;70.30
41437;DHT22;27178;49.460;10.850;2022-10-26T15:27:11;22.40;70.40
41437;DHT22;27178;49.460;10.850;2022-10-26T15:29:44;22.30;70.60
41437;DHT22;27178;49.460;10.850;2022-10-26T15:32:33;22.20;71.00
41437;DHT22;27178;49.460;10.850;2022-10-26T15:35:26;22.10;71.10
41437;DHT22;27178;49.460;10.850;2022-10-26T15:37:57;22.00;71.50
41437;DHT22;27178;49.460;10.850;2022-10-26T15:40:27;21.90;71.60
41437;DHT22;27178;49.460;10.850;2022-10-26T15:42:59;21.80;71.70
41437;DHT22;27178;49.460;10.850;2022-10-26T15:45:31;21.70;71.90
41437;DHT22;27178;49.460;10.850;2022-10-26T15:48:16;21.70;72.20
41437;DHT22;27178;49.460;10.850;2022-10-26T15:50:46;21.60;72.40
41437;DHT22;27178;49.460;10.850;2022-10-26T15:53:18;21.50;72.40
41437;DHT22;27178;49.460;10.850;2022-10-26T15:55:47;21.50;72.60
41437;DHT22;27178;49.460;10.850;2022-10-26T15:58:16;21.40;72.80
41437;DHT22;27178;49.460;10.850;2022-10-26T16:00:46;21.40;72.90
41437;DHT22;27178;49.460;10.850;2022-10-26T16:03:17;21.30;72.90
41437;DHT22;27178;49.460;10.850;2022-10-26T16:05:46;21.20;73.20
41437;DHT22;27178;49.460;10.850;2022-10-26T16:08:16;21.20;73.40
41437;DHT22;27178;49.460;10.850;2022-10-26T16:10:46;21.10;73.50
41437;DHT22;27178;49.460;10.850;2022-10-26T16:13:14;21.10;73.70
41437;DHT22;27178;49.460;10.850;2022-10-26T16:15:43;21.00;73.80
41437;DHT22;27178;49.460;10.850;2022-10-26T16:18:13;21.00;73.90
41437;DHT22;27178;49.460;10.850;2022-10-26T16:20:44;21.00;74.00